Norfolk, VA (23520)

8:37 AM EDT on August 28, 2014 (GMT -0400)
NMCP, Bldg 003 Jobsite | Change Station
CLOSE
Current Station
Personal Weather Station
Location: Portsmouth, VA
Elevation: 16 ft
Nearby Weather Stations

Elev 16 ft 36.84 °N, 76.30 °W | Updated 2 minutes ago

Partly Cloudy
Partly Cloudy
77.2 °F
Feels Like 79 °F
N
4.0
Wind Variable Wind from NNE
Gusts 7.0 mph

Today
High -- | Low -- °F
--% Chance of Precip.
Yesterday
High -- | Low -- °F
Precip. -- in
6:32 AM 7:39 PM
Waxing Crescent, 8% visible
Pressure 29.92 in
Visibility 10.0 miles
Clouds Clear
Heat Index 79 °F
Dew Point 68 °F
Humidity 74%
Rainfall 0.00 in
Snow Depth Not available.
UV 1 out of 12
Pollen 9.50 out of 12
Ozone Good
PM2.5 Good
Flu Activity Not available.
METAR KORF 281151Z AUTO VRB03KT 10SM CLR 25/19 A2992 RMK AO2 SLP132 T02500189 10250 20206 53011 TSNO

More Conditions Fewer Conditions

Pressure 29.92 in
Visibility 10.0 miles
Clouds Clear
Heat Index 79 °F
Dew Point 68 °F
Humidity 74%
Rainfall 0.00 in
Snow Depth Not available.
UV 1 out of 12
Pollen 9.50 out of 12
Ozone Good
PM2.5 Good
Flu Activity Not available.
METAR KORF 281151Z AUTO VRB03KT 10SM CLR 25/19 A2992 RMK AO2 SLP132 T02500189 10250 20206 53011 TSNO

More Conditions Fewer Conditions

10-Day Weather Forecast

Almanac

Astronomy

Aug. 28, 2014 Rise Set
Actual Time 6:32 AM EDT 7:39 PM EDT
Civil Twilight 6:06 AM EDT 8:05 PM EDT
Nautical Twilight 5:34 AM EDT 8:37 PM EDT
Astronomical Twilight 5:01 AM EDT 9:10 PM EDT
Moon 9:17 AM EDT 9:07 PM EDT
Length of Visible Light 13h 59m
Length of Day
13h 06m
Tomorrow will be 2m 12s shorter.
Waxing Crescent, 8% of the Moon is Illuminated
Today
Waxing Crescent
Sep 2
First Quarter
Sep 8
Full
Sep 15
Last Quarter
Sep 24
New

Today's Extremes

State Highs State Lows

Community

WunderPhotos

Upload Photos

1,747,943 photos uploaded!

Nearby

Air Quality

  Air Quality AQ Index Pollutant
Yesterday Good
OZONE
Yesterday Good
PM2.5
Current Good
PM2.5
Current Good
OZONE
Thursday Good
PM2.5
Thursday Good
OZONE

Snow Depth

Station Depth Elevation
No new snow has been reported.

Earthquake Activity

City Distance Mag. Time & Date
No recent earthquake activity has been reported nearby.
Minimum magnitude displayed is 2.5.

Coastal Water Temperatures

Place Temperature
Sewells Point, VA 78.1 °F
Chesapeake Bay Bridge Tunnel, VA 78.1 °F
Kiptopeke, VA 80.1 °F
Yorktown, VA 79.0 °F

Nearby Weather Stations